Erie, PA (16506)

6:02 PM EDT on September 20, 2014 (GMT -0400)
CARTER`S Lawn Care | Change Station
CLOSE
Current Station
Personal Weather Station
Location: Erie, PA
Elevation: 836 ft
Nearby Weather Stations

Elev 836 ft 42.07 °N, 80.16 °W | Updated 9 seconds ago

Clear
Clear
76.1 °F
Feels Like 78 °F
N
0.0
Wind Variable Wind from SSE
Gusts 7.0 mph

Today
High -- | Low -- °F
--% Chance of Precip.
Yesterday
High -- | Low -- °F
Precip. -- in
7:05 AM 7:21 PM
Waning Crescent, 10% visible
Pressure 29.89 in
Visibility 10.0 miles
Clouds Clear
Heat Index 78 °F
Dew Point 67 °F
Humidity 74%
Rainfall 0.00 in
Snow Depth Not available.
UV 2 out of 12
Pollen 5.40 out of 12
Air Quality Not available.
Flu Activity Not available.
METAR KERI 202051Z 20014G26KT 10SM CLR 26/15 A2989

More Conditions Fewer Conditions

Pressure 29.89 in
Visibility 10.0 miles
Clouds Clear
Heat Index 78 °F
Dew Point 67 °F
Humidity 74%
Rainfall 0.00 in
Snow Depth Not available.
UV 2 out of 12
Pollen 5.40 out of 12
Air Quality Not available.
Flu Activity Not available.
METAR KERI 202051Z 20014G26KT 10SM CLR 26/15 A2989

More Conditions Fewer Conditions

10-Day Weather Forecast

Almanac

Astronomy

Sep. 20, 2014 Rise Set
Actual Time 7:05 AM EDT 7:21 PM EDT
Civil Twilight 6:37 AM EDT 7:49 PM EDT
Nautical Twilight 6:05 AM EDT 8:22 PM EDT
Astronomical Twilight 5:31 AM EDT 8:55 PM EDT
Moon 3:40 AM EDT 5:26 PM EDT
Length of Visible Light 13h 11m
Length of Day
12h 15m
Tomorrow will be 2m 48s shorter.
Waning Crescent, 10% of the Moon is Illuminated
Today
Waning Crescent
Sep 24
New
Oct 1
First Quarter
Oct 8
Full
Oct 15
Last Quarter

Today's Extremes

State Highs State Lows

Community

WunderPhotos

Upload Photos

1,754,966 photos uploaded!

WunderBlogs® & News

Nearby

Snow Depth

Station Depth Elevation
No new snow has been reported.

Earthquake Activity

City Distance Mag. Time & Date
No recent earthquake activity has been reported nearby.
Minimum magnitude displayed is 2.5.

Coastal Water Temperatures

Place Temperature
Fairport, OH 66.0 °F
Buffalo, NY 66.9 °F

Nearby Weather Stations